Ioannis G — 9HA3371 — position and weather

sailwx.info

Track history (hours):
 
Tides and Currents Weather Stations Pressure Air Temp Water Temp Dewpoint Dewpoint Depression Visibility Wind Speed Wind Dir Waves Ship Positions

Ioannis G

Last reported at 2017-Oct-16 10:47 UTC. Time now 2017-Oct-17 11:17 UTC.
Position N 36°16' E 021°16'.

Length 189 m; draft 10 m.

Type: Cargo ship. MMSI: 229486000.

Date/timePositionNaut miles runAvg speedWind from/ knotsBaromVisibWave heightAir tempDewpointWater temp
2017-Oct-16 10:47N 36°16' E 021°16'6311.8
2017-Oct-16 05:25N 36°12' E 019°57'611.5
2017-Oct-16 04:51N 36°12' E 019°49'511.3
2017-Oct-16 04:23N 36°11' E 019°43'22511.2
2017-Oct-15 08:14N 35°57' E 015°05'311.2
2017-Oct-15 07:56N 35°57' E 015°01'511.3
2017-Oct-15 07:30N 35°57' E 014°55'610.9
2017-Oct-15 06:58N 35°56' E 014°48'3 5.9
2017-Oct-15 06:28N 35°55' E 014°45'0 0.2
2017-Oct-15 05:58N 35°54' E 014°45'0 0.0
2017-Oct-15 05:25N 35°54' E 014°45'0 0.0
2017-Oct-15 03:52N 35°54' E 014°45'0 0.0
2017-Oct-15 03:10N 35°54' E 014°44'0 0.0
2017-Oct-15 02:49N 35°54' E 014°44'0 0.0
2017-Oct-15 02:22N 35°54' E 014°44'0 0.0
2017-Oct-15 01:58N 35°54' E 014°44'0 0.0
2017-Oct-15 01:28N 35°54' E 014°45'0 0.0
2017-Oct-15 00:58N 35°54' E 014°45'0 0.0
2017-Oct-15 00:28N 35°54' E 014°45'0 0.0
2017-Oct-14 23:52N 35°54' E 014°45'0 0.1
2017-Oct-14 23:28N 35°54' E 014°45'0 0.0
2017-Oct-14 22:58N 35°55' E 014°45'0 0.0
2017-Oct-14 22:25N 35°54' E 014°45'0 0.2
2017-Oct-14 22:00N 35°55' E 014°45'1 1.7
2017-Oct-14 21:30N 35°54' E 014°44'510.6
2017-Oct-14 21:00N 35°56' E 014°37'3 6.7
2017-Oct-14 20:30N 35°57' E 014°33'0 0.5
2017-Oct-14 20:00N 35°57' E 014°33'3 5.8
2017-Oct-14 19:30N 35°59' E 014°31'4 7.9
2017-Oct-14 19:00N 36°02' E 014°28'611.8
2017-Oct-14 18:30N 36°06' E 014°23'611.5
2017-Oct-14 18:00N 36°09' E 014°17'611.7
2017-Oct-14 17:30N 36°12' E 014°10'611.7
2017-Oct-14 17:00N 36°14' E 014°03'611.8
2017-Oct-14 16:30N 36°17' E 013°57'611.8
2017-Oct-14 16:00N 36°19' E 013°50'611.7
2017-Oct-14 15:30N 36°22' E 013°44'611.5
2017-Oct-14 14:59N 36°24' E 013°37'1111.4
2017-Oct-14 14:03N 36°29' E 013°25'111.4
2017-Oct-14 14:00N 36°29' E 013°25'1111.4
2017-Oct-14 13:02N 36°34' E 013°12'011.3
2017-Oct-14 13:00N 36°34' E 013°12'38611.5
2017-Oct-13 03:30N 37°19' E 005°11'611.3
2017-Oct-13 02:58N 37°18' E 005°04'611.3
2017-Oct-13 02:27N 37°18' E 004°56'611.5
2017-Oct-13 01:57N 37°17' E 004°49'611.4
2017-Oct-13 01:25N 37°16' E 004°42'611.7
2017-Oct-13 00:56N 37°16' E 004°35'511.7
2017-Oct-13 00:30N 37°15' E 004°28'9611.8
2017-Oct-12 16:23N 36°59' E 002°30'411.7
2017-Oct-12 16:00N 36°58' E 002°24'711.7
2017-Oct-12 15:25N 36°57' E 002°16'511.7
2017-Oct-12 15:00N 36°56' E 002°10'611.9
2017-Oct-12 14:30N 36°55' E 002°03'611.8
2017-Oct-12 14:00N 36°53' E 001°55'611.9
2017-Oct-12 13:30N 36°52' E 001°48'1012.1
2017-Oct-12 12:41N 36°51' E 001°36'312.0
2017-Oct-12 12:24N 36°50' E 001°32'512.1
2017-Oct-12 12:00N 36°49' E 001°26'611.9
2017-Oct-12 11:30N 36°48' E 001°19'611.7
2017-Oct-12 11:00N 36°46' E 001°11'611.7
2017-Oct-12 10:30N 36°45' E 001°04'611.5
2017-Oct-12 09:59N 36°44' E 000°57'611.7
2017-Oct-12 09:30N 36°43' E 000°50'612.1
2017-Oct-12 09:00N 36°42' E 000°42'612.1
2017-Oct-12 08:30N 36°41' E 000°35'612.0
2017-Oct-12 08:00N 36°40' E 000°28'811.9
2017-Oct-12 07:21N 36°39' E 000°18'911.8
2017-Oct-12 06:37N 36°36' E 000°08'3312.0
2017-Oct-12 03:51N 36°30' W 000°33'411.9
2017-Oct-12 03:30N 36°29' W 000°38'612.0
2017-Oct-12 03:00N 36°28' W 000°45'1512.0
2017-Oct-12 01:47N 36°25' W 001°03'412.3
2017-Oct-12 01:26N 36°24' W 001°08'612.5
2017-Oct-12 00:59N 36°23' W 001°15'29211.7
2017-Oct-10 23:58N 35°58' W 007°16'511.7
2017-Oct-10 23:30N 35°59' W 007°22'611.6
2017-Oct-10 23:00N 35°60' W 007°30'611.6
2017-Oct-10 22:30N 36°01' W 007°37'611.6
2017-Oct-10 22:00N 36°01' W 007°44'611.4
2017-Oct-10 21:30N 36°02' W 007°51'611.5
2017-Oct-10 21:00N 36°03' W 007°58'611.2
2017-Oct-10 20:30N 36°04' W 008°05'611.5
2017-Oct-10 20:00N 36°05' W 008°12'611.7
2017-Oct-10 19:30N 36°05' W 008°19'611.3
2017-Oct-10 18:59N 36°06' W 008°26'511.4
2017-Oct-10 18:30N 36°07' W 008°33'611.8
2017-Oct-10 18:00N 36°08' W 008°40'612.2
2017-Oct-10 17:30N 36°09' W 008°47'611.9
2017-Oct-10 17:00N 36°09' W 008°55'611.5
2017-Oct-10 16:30N 36°10' W 009°02'611.6
2017-Oct-10 16:00N 36°11' W 009°09'611.8
2017-Oct-10 15:30N 36°11' W 009°16'612.0
2017-Oct-10 15:00N 36°12' W 009°24'1212.2
2017-Oct-10 14:00N 36°14' W 009°38'611.8
2017-Oct-10 13:30N 36°14' W 009°46'611.7
2017-Oct-10 13:00N 36°15' W 009°53'611.7
2017-Oct-10 12:30N 36°16' W 010°00'611.6
2017-Oct-10 12:00N 36°17' W 010°07'611.3
2017-Oct-10 11:30N 36°17' W 010°14'611.3
2017-Oct-10 11:00N 36°18' W 010°21'611.4
2017-Oct-10 10:30N 36°18' W 010°28'611.5
2017-Oct-10 10:00N 36°19' W 010°35'611.6
2017-Oct-10 09:30N 36°20' W 010°42'611.8
2017-Oct-10 09:00N 36°20' W 010°50'611.7
2017-Oct-10 08:30N 36°21' W 010°57'611.7
2017-Oct-10 08:00N 36°21' W 011°04'611.7
2017-Oct-10 07:30N 36°22' W 011°11'611.4
2017-Oct-10 07:00N 36°23' W 011°18'611.4
2017-Oct-10 06:30N 36°23' W 011°25'611.7
2017-Oct-10 06:00N 36°24' W 011°33'611.9
2017-Oct-10 05:30N 36°24' W 011°40'611.4
2017-Oct-10 05:00N 36°25' W 011°47'611.1
2017-Oct-10 04:30N 36°25' W 011°54'611.4
2017-Oct-10 04:00N 36°26' W 012°01'611.5
2017-Oct-10 03:30N 36°26' W 012°08'611.4
2017-Oct-10 03:00N 36°27' W 012°15'611.5
2017-Oct-10 02:30N 36°28' W 012°22'611.6
2017-Oct-10 02:00N 36°28' W 012°29'612.0
2017-Oct-10 01:30N 36°29' W 012°37'611.5
2017-Oct-10 01:00N 36°29' W 012°44'611.2
2017-Oct-10 00:30N 36°29' W 012°51'611.1
2017-Oct-10 00:00N 36°29' W 012°58'611.6
2017-Oct-09 23:30N 36°30' W 013°05'611.5
2017-Oct-09 23:00N 36°31' W 013°12'611.8
2017-Oct-09 22:30N 36°32' W 013°19'611.9
2017-Oct-09 22:00N 36°32' W 013°27'612.0
2017-Oct-09 21:30N 36°33' W 013°34'611.9
2017-Oct-09 21:00N 36°33' W 013°42'611.7
2017-Oct-09 20:30N 36°33' W 013°49'611.6
2017-Oct-09 20:00N 36°34' W 013°56'611.8
2017-Oct-09 19:29N 36°34' W 014°04'711.8
2017-Oct-09 18:52N 36°35' W 014°13'411.8
2017-Oct-09 18:30N 36°35' W 014°18'611.6
2017-Oct-09 18:00N 36°36' W 014°25'611.3
2017-Oct-09 17:30N 36°36' W 014°32'610.9
2017-Oct-09 17:00N 36°36' W 014°39'511.1
2017-Oct-09 16:30N 36°37' W 014°46'611.2
2017-Oct-09 16:00N 36°37' W 014°53'611.2
2017-Oct-09 15:30N 36°37' W 014°60'611.2
2017-Oct-09 15:00N 36°38' W 015°07'611.2
2017-Oct-09 14:30N 36°38' W 015°14'611.3
2017-Oct-09 13:57N 36°38' W 015°21'811.3
2017-Oct-09 13:17N 36°39' W 015°31'311.4
2017-Oct-09 13:00N 36°39' W 015°35'611.2
2017-Oct-09 12:30N 36°39' W 015°42'611.2
2017-Oct-09 12:00N 36°40' W 015°49'611.2
2017-Oct-09 11:30N 36°40' W 015°56'611.5
2017-Oct-09 11:00N 36°40' W 016°03'711.7
2017-Oct-09 10:24N 36°41' W 016°12'512.1
2017-Oct-09 10:00N 36°41' W 016°18'1212.2
2017-Oct-09 09:00N 36°42' W 016°33'612.0
2017-Oct-09 08:30N 36°42' W 016°40'712.0
2017-Oct-09 07:58N 36°42' W 016°48'612.5
2017-Oct-09 07:30N 36°42' W 016°56'612.4
2017-Oct-09 06:59N 36°43' W 017°04'612.4
2017-Oct-09 06:30N 36°43' W 017°11'612.3
2017-Oct-09 06:00N 36°43' W 017°19'612.2
2017-Oct-09 05:30N 36°43' W 017°26'612.1
2017-Oct-09 05:00N 36°44' W 017°34'612.1
2017-Oct-09 04:30N 36°44' W 017°41'612.0
2017-Oct-09 04:00N 36°44' W 017°49'611.8
2017-Oct-09 03:30N 36°44' W 017°56'611.9
2017-Oct-09 03:00N 36°44' W 018°04'712.1
2017-Oct-09 02:28N 36°45' W 018°12'25711.8
2017-Oct-08 04:34N 36°45' W 023°33'112.1
2017-Oct-08 04:30N 36°45' W 023°34'611.8
2017-Oct-08 04:00N 36°45' W 023°41'611.8
2017-Oct-08 03:30N 36°45' W 023°49'612.1
2017-Oct-08 03:00N 36°45' W 023°56'612.1
2017-Oct-08 02:30N 36°45' W 024°04'611.8
2017-Oct-08 02:01N 36°45' W 024°11'611.8
2017-Oct-08 01:30N 36°44' W 024°18'611.9
2017-Oct-08 01:00N 36°44' W 024°26'612.0
2017-Oct-08 00:30N 36°44' W 024°33'612.0
2017-Oct-08 00:00N 36°44' W 024°41'611.9
2017-Oct-07 23:30N 36°44' W 024°48'611.8
2017-Oct-07 23:00N 36°43' W 024°56'611.8
2017-Oct-07 22:30N 36°43' W 025°03'611.6
2017-Oct-07 22:01N 36°43' W 025°10'611.9
2017-Oct-07 21:30N 36°43' W 025°18'611.8
2017-Oct-07 21:00N 36°43' W 025°25'611.4
2017-Oct-07 20:30N 36°42' W 025°32'611.2
2017-Oct-07 20:00N 36°42' W 025°39'611.8
2017-Oct-07 19:30N 36°42' W 025°46'612.1
2017-Oct-07 19:00N 36°42' W 025°54'612.2
2017-Oct-07 18:30N 36°42' W 026°02'612.0
2017-Oct-07 18:00N 36°41' W 026°09'912.1
2017-Oct-07 17:18N 36°41' W 026°20'  
Track history (hours):
 
Tides and Currents Weather Stations Pressure Air Temp Water Temp Dewpoint Dewpoint Depression Visibility Wind Speed Wind Dir Waves Ship Positions

Ioannis G

Last reported at 2017-Oct-16 10:47 UTC. Time now 2017-Oct-17 11:17 UTC.
Position N 36°16' E 021°16'.

Length 189 m; draft 10 m.

Type: Cargo ship. MMSI: 229486000.

Date/timePositionNaut miles runAvg speedWind from/ knotsBaromVisibWave heightAir tempDewpointWater temp
2017-Oct-16 10:47N 36°16' E 021°16'6311.8
2017-Oct-16 05:25N 36°12' E 019°57'611.5
2017-Oct-16 04:51N 36°12' E 019°49'511.3
2017-Oct-16 04:23N 36°11' E 019°43'22511.2
2017-Oct-15 08:14N 35°57' E 015°05'311.2
2017-Oct-15 07:56N 35°57' E 015°01'511.3
2017-Oct-15 07:30N 35°57' E 014°55'610.9
2017-Oct-15 06:58N 35°56' E 014°48'3 5.9
2017-Oct-15 06:28N 35°55' E 014°45'0 0.2
2017-Oct-15 05:58N 35°54' E 014°45'0 0.0
2017-Oct-15 05:25N 35°54' E 014°45'0 0.0
2017-Oct-15 03:52N 35°54' E 014°45'0 0.0
2017-Oct-15 03:10N 35°54' E 014°44'0 0.0
2017-Oct-15 02:49N 35°54' E 014°44'0 0.0
2017-Oct-15 02:22N 35°54' E 014°44'0 0.0
2017-Oct-15 01:58N 35°54' E 014°44'0 0.0
2017-Oct-15 01:28N 35°54' E 014°45'0 0.0
2017-Oct-15 00:58N 35°54' E 014°45'0 0.0
2017-Oct-15 00:28N 35°54' E 014°45'0 0.0
2017-Oct-14 23:52N 35°54' E 014°45'0 0.1
2017-Oct-14 23:28N 35°54' E 014°45'0 0.0
2017-Oct-14 22:58N 35°55' E 014°45'0 0.0
2017-Oct-14 22:25N 35°54' E 014°45'0 0.2
2017-Oct-14 22:00N 35°55' E 014°45'1 1.7
2017-Oct-14 21:30N 35°54' E 014°44'510.6
2017-Oct-14 21:00N 35°56' E 014°37'3 6.7
2017-Oct-14 20:30N 35°57' E 014°33'0 0.5
2017-Oct-14 20:00N 35°57' E 014°33'3 5.8
2017-Oct-14 19:30N 35°59' E 014°31'4 7.9
2017-Oct-14 19:00N 36°02' E 014°28'611.8
2017-Oct-14 18:30N 36°06' E 014°23'611.5
2017-Oct-14 18:00N 36°09' E 014°17'611.7
2017-Oct-14 17:30N 36°12' E 014°10'611.7
2017-Oct-14 17:00N 36°14' E 014°03'611.8
2017-Oct-14 16:30N 36°17' E 013°57'611.8
2017-Oct-14 16:00N 36°19' E 013°50'611.7
2017-Oct-14 15:30N 36°22' E 013°44'611.5
2017-Oct-14 14:59N 36°24' E 013°37'1111.4
2017-Oct-14 14:03N 36°29' E 013°25'111.4
2017-Oct-14 14:00N 36°29' E 013°25'1111.4
2017-Oct-14 13:02N 36°34' E 013°12'011.3
2017-Oct-14 13:00N 36°34' E 013°12'38611.5
2017-Oct-13 03:30N 37°19' E 005°11'611.3
2017-Oct-13 02:58N 37°18' E 005°04'611.3
2017-Oct-13 02:27N 37°18' E 004°56'611.5
2017-Oct-13 01:57N 37°17' E 004°49'611.4
2017-Oct-13 01:25N 37°16' E 004°42'611.7
2017-Oct-13 00:56N 37°16' E 004°35'511.7
2017-Oct-13 00:30N 37°15' E 004°28'9611.8
2017-Oct-12 16:23N 36°59' E 002°30'411.7
2017-Oct-12 16:00N 36°58' E 002°24'711.7
2017-Oct-12 15:25N 36°57' E 002°16'511.7
2017-Oct-12 15:00N 36°56' E 002°10'611.9
2017-Oct-12 14:30N 36°55' E 002°03'611.8
2017-Oct-12 14:00N 36°53' E 001°55'611.9
2017-Oct-12 13:30N 36°52' E 001°48'1012.1
2017-Oct-12 12:41N 36°51' E 001°36'312.0
2017-Oct-12 12:24N 36°50' E 001°32'512.1
2017-Oct-12 12:00N 36°49' E 001°26'611.9
2017-Oct-12 11:30N 36°48' E 001°19'611.7
2017-Oct-12 11:00N 36°46' E 001°11'611.7
2017-Oct-12 10:30N 36°45' E 001°04'611.5
2017-Oct-12 09:59N 36°44' E 000°57'611.7
2017-Oct-12 09:30N 36°43' E 000°50'612.1
2017-Oct-12 09:00N 36°42' E 000°42'612.1
2017-Oct-12 08:30N 36°41' E 000°35'612.0
2017-Oct-12 08:00N 36°40' E 000°28'811.9
2017-Oct-12 07:21N 36°39' E 000°18'911.8
2017-Oct-12 06:37N 36°36' E 000°08'3312.0
2017-Oct-12 03:51N 36°30' W 000°33'411.9
2017-Oct-12 03:30N 36°29' W 000°38'612.0
2017-Oct-12 03:00N 36°28' W 000°45'1512.0
2017-Oct-12 01:47N 36°25' W 001°03'412.3
2017-Oct-12 01:26N 36°24' W 001°08'612.5
2017-Oct-12 00:59N 36°23' W 001°15'29211.7
2017-Oct-10 23:58N 35°58' W 007°16'511.7
2017-Oct-10 23:30N 35°59' W 007°22'611.6
2017-Oct-10 23:00N 35°60' W 007°30'611.6
2017-Oct-10 22:30N 36°01' W 007°37'611.6
2017-Oct-10 22:00N 36°01' W 007°44'611.4
2017-Oct-10 21:30N 36°02' W 007°51'611.5
2017-Oct-10 21:00N 36°03' W 007°58'611.2
2017-Oct-10 20:30N 36°04' W 008°05'611.5
2017-Oct-10 20:00N 36°05' W 008°12'611.7
2017-Oct-10 19:30N 36°05' W 008°19'611.3
2017-Oct-10 18:59N 36°06' W 008°26'511.4
2017-Oct-10 18:30N 36°07' W 008°33'611.8
2017-Oct-10 18:00N 36°08' W 008°40'612.2
2017-Oct-10 17:30N 36°09' W 008°47'611.9
2017-Oct-10 17:00N 36°09' W 008°55'611.5
2017-Oct-10 16:30N 36°10' W 009°02'611.6
2017-Oct-10 16:00N 36°11' W 009°09'611.8
2017-Oct-10 15:30N 36°11' W 009°16'612.0
2017-Oct-10 15:00N 36°12' W 009°24'1212.2
2017-Oct-10 14:00N 36°14' W 009°38'611.8
2017-Oct-10 13:30N 36°14' W 009°46'611.7
2017-Oct-10 13:00N 36°15' W 009°53'611.7
2017-Oct-10 12:30N 36°16' W 010°00'611.6
2017-Oct-10 12:00N 36°17' W 010°07'611.3
2017-Oct-10 11:30N 36°17' W 010°14'611.3
2017-Oct-10 11:00N 36°18' W 010°21'611.4
2017-Oct-10 10:30N 36°18' W 010°28'611.5
2017-Oct-10 10:00N 36°19' W 010°35'611.6
2017-Oct-10 09:30N 36°20' W 010°42'611.8
2017-Oct-10 09:00N 36°20' W 010°50'611.7
2017-Oct-10 08:30N 36°21' W 010°57'611.7
2017-Oct-10 08:00N 36°21' W 011°04'611.7
2017-Oct-10 07:30N 36°22' W 011°11'611.4
2017-Oct-10 07:00N 36°23' W 011°18'611.4
2017-Oct-10 06:30N 36°23' W 011°25'611.7
2017-Oct-10 06:00N 36°24' W 011°33'611.9
2017-Oct-10 05:30N 36°24' W 011°40'611.4
2017-Oct-10 05:00N 36°25' W 011°47'611.1
2017-Oct-10 04:30N 36°25' W 011°54'611.4
2017-Oct-10 04:00N 36°26' W 012°01'611.5
2017-Oct-10 03:30N 36°26' W 012°08'611.4
2017-Oct-10 03:00N 36°27' W 012°15'611.5
2017-Oct-10 02:30N 36°28' W 012°22'611.6
2017-Oct-10 02:00N 36°28' W 012°29'612.0
2017-Oct-10 01:30N 36°29' W 012°37'611.5
2017-Oct-10 01:00N 36°29' W 012°44'611.2
2017-Oct-10 00:30N 36°29' W 012°51'611.1
2017-Oct-10 00:00N 36°29' W 012°58'611.6
2017-Oct-09 23:30N 36°30' W 013°05'611.5
2017-Oct-09 23:00N 36°31' W 013°12'611.8
2017-Oct-09 22:30N 36°32' W 013°19'611.9
2017-Oct-09 22:00N 36°32' W 013°27'612.0
2017-Oct-09 21:30N 36°33' W 013°34'611.9
2017-Oct-09 21:00N 36°33' W 013°42'611.7
2017-Oct-09 20:30N 36°33' W 013°49'611.6
2017-Oct-09 20:00N 36°34' W 013°56'611.8
2017-Oct-09 19:29N 36°34' W 014°04'711.8
2017-Oct-09 18:52N 36°35' W 014°13'411.8
2017-Oct-09 18:30N 36°35' W 014°18'611.6
2017-Oct-09 18:00N 36°36' W 014°25'611.3
2017-Oct-09 17:30N 36°36' W 014°32'610.9
2017-Oct-09 17:00N 36°36' W 014°39'511.1
2017-Oct-09 16:30N 36°37' W 014°46'611.2
2017-Oct-09 16:00N 36°37' W 014°53'611.2
2017-Oct-09 15:30N 36°37' W 014°60'611.2
2017-Oct-09 15:00N 36°38' W 015°07'611.2
2017-Oct-09 14:30N 36°38' W 015°14'611.3
2017-Oct-09 13:57N 36°38' W 015°21'811.3
2017-Oct-09 13:17N 36°39' W 015°31'311.4
2017-Oct-09 13:00N 36°39' W 015°35'611.2
2017-Oct-09 12:30N 36°39' W 015°42'611.2
2017-Oct-09 12:00N 36°40' W 015°49'611.2
2017-Oct-09 11:30N 36°40' W 015°56'611.5
2017-Oct-09 11:00N 36°40' W 016°03'711.7
2017-Oct-09 10:24N 36°41' W 016°12'512.1
2017-Oct-09 10:00N 36°41' W 016°18'1212.2
2017-Oct-09 09:00N 36°42' W 016°33'612.0
2017-Oct-09 08:30N 36°42' W 016°40'712.0
2017-Oct-09 07:58N 36°42' W 016°48'612.5
2017-Oct-09 07:30N 36°42' W 016°56'612.4
2017-Oct-09 06:59N 36°43' W 017°04'612.4
2017-Oct-09 06:30N 36°43' W 017°11'612.3
2017-Oct-09 06:00N 36°43' W 017°19'612.2
2017-Oct-09 05:30N 36°43' W 017°26'612.1
2017-Oct-09 05:00N 36°44' W 017°34'612.1
2017-Oct-09 04:30N 36°44' W 017°41'612.0
2017-Oct-09 04:00N 36°44' W 017°49'611.8
2017-Oct-09 03:30N 36°44' W 017°56'611.9
2017-Oct-09 03:00N 36°44' W 018°04'712.1
2017-Oct-09 02:28N 36°45' W 018°12'25711.8
2017-Oct-08 04:34N 36°45' W 023°33'112.1
2017-Oct-08 04:30N 36°45' W 023°34'611.8
2017-Oct-08 04:00N 36°45' W 023°41'611.8
2017-Oct-08 03:30N 36°45' W 023°49'612.1
2017-Oct-08 03:00N 36°45' W 023°56'612.1
2017-Oct-08 02:30N 36°45' W 024°04'611.8
2017-Oct-08 02:01N 36°45' W 024°11'611.8
2017-Oct-08 01:30N 36°44' W 024°18'611.9
2017-Oct-08 01:00N 36°44' W 024°26'612.0
2017-Oct-08 00:30N 36°44' W 024°33'612.0
2017-Oct-08 00:00N 36°44' W 024°41'611.9
2017-Oct-07 23:30N 36°44' W 024°48'611.8
2017-Oct-07 23:00N 36°43' W 024°56'611.8
2017-Oct-07 22:30N 36°43' W 025°03'611.6
2017-Oct-07 22:01N 36°43' W 025°10'611.9
2017-Oct-07 21:30N 36°43' W 025°18'611.8
2017-Oct-07 21:00N 36°43' W 025°25'611.4
2017-Oct-07 20:30N 36°42' W 025°32'611.2
2017-Oct-07 20:00N 36°42' W 025°39'611.8
2017-Oct-07 19:30N 36°42' W 025°46'612.1
2017-Oct-07 19:00N 36°42' W 025°54'612.2
2017-Oct-07 18:30N 36°42' W 026°02'612.0
2017-Oct-07 18:00N 36°41' W 026°09'912.1
2017-Oct-07 17:18N 36°41' W 026°20'  

Dump ship's entire track history